Time;durP1;ratioP1;P1;durP2;ratioP2;P2;SDS_P1;SDS_P2;PMS_P1;PMS_P2;Temp;Humidity;BMP_temperature;BMP_pressure;BME280_temperature;BME280_humidity;BME280_pressure;Samples;Min_cycle;Max_cycle;Signal;HPM_P1;HPM_P2
2021/12/09 00:01:16;;;;;;;2.80;2.50;;;;;;;-1.12;92.94;101944.69;6363372;28;20477;-75
2021/12/09 00:04:28;;;;;;;2.47;1.67;;;;;;;-1.09;93.31;101944.47;6364611;28;20190;-75
2021/12/09 00:07:34;;;;;;;5.03;2.03;;;;;;;-1.23;93.67;101952.69;6364570;28;20206;-75
2021/12/09 00:10:39;;;;;;;4.30;2.07;;;;;;;-1.07;93.36;101945.19;6364535;28;20192;-75
2021/12/09 00:13:43;;;;;;;2.40;2.20;;;;;;;-1.18;92.94;101950.53;6363152;28;20292;-75
2021/12/09 00:16:48;;;;;;;2.77;2.40;;;;;;;-1.20;92.68;101949.75;6364455;28;20221;-75
2021/12/09 00:19:52;;;;;;;2.90;2.30;;;;;;;-1.30;92.56;101942.44;6362516;28;20183;-75
2021/12/09 00:22:58;;;;;;;3.03;2.00;;;;;;;-1.29;93.61;101949.50;6363457;28;20188;-75
2021/12/09 00:26:02;;;;;;;4.50;2.43;;;;;;;-1.34;93.01;101946.31;6362845;28;20382;-74
2021/12/09 00:29:07;;;;;;;4.43;1.87;;;;;;;-1.46;93.07;101947.19;6363756;28;20210;-75
2021/12/09 00:32:12;;;;;;;2.10;2.10;;;;;;;-1.48;93.59;101948.28;6363772;28;20208;-75
2021/12/09 00:35:17;;;;;;;2.03;1.80;;;;;;;-1.59;92.68;101946.38;6363823;28;20239;-75
2021/12/09 00:38:34;;;;;;;2.40;2.00;;;;;;;-1.57;93.14;101949.84;6362469;28;20251;-75
2021/12/09 00:41:42;;;;;;;1.80;1.80;;;;;;;-1.68;94.29;101957.78;6363716;28;20243;-75
2021/12/09 00:44:47;;;;;;;2.73;2.40;;;;;;;-1.64;93.97;101948.53;6363409;28;20185;-75
2021/12/09 00:47:52;;;;;;;3.13;2.00;;;;;;;-1.71;94.04;101946.44;6363598;28;20217;-75
2021/12/09 00:50:58;;;;;;;5.93;1.70;;;;;;;-1.79;94.32;101955.00;6362989;28;20198;-74
2021/12/09 00:54:04;;;;;;;2.33;2.10;;;;;;;-1.86;94.01;101945.72;6362652;28;20264;-74
2021/12/09 01:07:08;;;;;;;2.07;1.97;;;;;;;-1.87;94.69;101952.03;6362446;28;20315;-74
2021/12/09 01:10:16;;;;;;;2.00;2.00;;;;;;;-1.78;95.15;101946.03;6362891;28;20190;-75
2021/12/09 01:13:21;;;;;;;2.17;2.10;;;;;;;-1.72;94.55;101945.56;6362220;28;20184;-75
2021/12/09 01:16:25;;;;;;;2.97;2.10;;;;;;;-1.60;94.78;101947.38;6363088;28;20192;-75
2021/12/09 01:19:29;;;;;;;2.43;1.90;;;;;;;-1.73;94.54;101949.22;6362974;28;20186;-75
2021/12/09 01:22:38;;;;;;;6.60;2.27;;;;;;;-1.65;93.57;101957.56;6362095;28;20194;-75
2021/12/09 01:25:44;;;;;;;4.67;2.30;;;;;;;-1.96;93.49;101960.72;6362951;28;20231;-75
2021/12/09 01:28:53;;;;;;;1.67;1.67;;;;;;;-2.04;94.55;101965.75;6362325;28;20210;-75
2021/12/09 01:32:01;;;;;;;2.07;1.97;;;;;;;-1.93;94.80;101952.50;6362360;28;20254;-75
2021/12/09 01:35:06;;;;;;;4.03;2.00;;;;;;;-1.99;95.00;101958.25;6361891;28;20185;-74
2021/12/09 01:38:14;;;;;;;2.37;2.30;;;;;;;-1.91;95.13;101950.56;6361371;28;20189;-74
2021/12/09 01:41:21;;;;;;;5.93;2.20;;;;;;;-1.98;93.92;101954.63;6361736;28;20228;-74
2021/12/09 01:44:25;;;;;;;2.10;2.00;;;;;;;-2.13;94.01;101939.69;6362643;28;20220;-74
2021/12/09 01:47:30;;;;;;;2.00;2.00;;;;;;;-1.81;93.95;101948.94;6362276;28;20211;-74
2021/12/09 01:50:35;;;;;;;2.10;2.00;;;;;;;-1.95;93.83;101954.41;6361026;28;20410;-75
2021/12/09 01:53:40;;;;;;;3.60;2.23;;;;;;;-1.94;93.69;101950.78;6361430;28;20296;-74
2021/12/09 01:56:46;;;;;;;4.43;2.37;;;;;;;-1.99;94.00;101952.91;6362426;28;20190;-74
2021/12/09 01:59:50;;;;;;;2.30;2.10;;;;;;;-1.96;93.92;101947.34;6362182;28;20189;-74
2021/12/09 02:02:56;;;;;;;4.97;2.30;;;;;;;-1.99;93.28;101947.56;6362145;28;20248;-74
2021/12/09 02:06:03;;;;;;;2.40;2.07;;;;;;;-2.21;92.68;101956.25;6361077;28;20185;-73
2021/12/09 02:09:08;;;;;;;2.60;2.40;;;;;;;-2.31;93.84;101957.03;6360944;28;20212;-73
2021/12/09 02:12:13;;;;;;;3.27;2.10;;;;;;;-2.32;94.47;101960.66;6361088;28;20476;-74
2021/12/09 02:15:20;;;;;;;1.60;1.60;;;;;;;-2.27;94.94;101953.16;6362041;28;20252;-74
2021/12/09 02:18:25;;;;;;;7.10;1.93;;;;;;;-2.40;94.13;101953.16;6360893;28;20494;-74
2021/12/09 02:21:33;;;;;;;1.80;1.80;;;;;;;-2.39;93.49;101959.38;6361852;28;20183;-73
2021/12/09 02:24:38;;;;;;;3.37;1.90;;;;;;;-2.38;94.08;101971.75;6361800;28;20185;-74
2021/12/09 02:27:44;;;;;;;3.40;2.30;;;;;;;-2.46;94.59;101952.72;6362089;28;20193;-74
2021/12/09 02:30:48;;;;;;;2.60;2.40;;;;;;;-2.54;94.38;101971.97;6360727;28;20217;-74
2021/12/09 02:33:52;;;;;;;7.43;2.40;;;;;;;-2.50;94.86;101965.47;6360737;28;20530;-74
2021/12/09 02:36:58;;;;;;;2.00;1.90;;;;;;;-2.46;94.38;101944.69;6360682;28;20242;-75
2021/12/09 02:40:04;;;;;;;2.87;2.10;;;;;;;-2.48;94.07;101949.31;6361639;28;20192;-75
2021/12/09 02:43:08;;;;;;;4.83;2.20;;;;;;;-2.56;93.84;101956.03;6366229;27;20192;-75
2021/12/09 02:46:13;;;;;;;2.10;2.00;;;;;;;-2.56;94.63;101948.03;6366195;28;20255;-74
2021/12/09 02:49:21;;;;;;;2.93;1.90;;;;;;;-2.35;95.15;101952.84;6365745;28;20241;-74
2021/12/09 02:52:27;;;;;;;2.07;1.97;;;;;;;-2.36;94.79;101943.13;6365381;28;20289;-75
2021/12/09 02:55:31;;;;;;;4.00;2.13;;;;;;;-2.28;94.91;101946.09;6366307;28;20185;-74
2021/12/09 02:58:36;;;;;;;2.50;1.97;;;;;;;-2.20;94.84;101951.75;6366380;28;20196;-74
2021/12/09 03:01:51;;;;;;;2.30;2.00;;;;;;;-2.17;94.42;101954.22;6365261;28;20216;-74
2021/12/09 03:04:58;;;;;;;2.57;2.37;;;;;;;-2.05;94.16;101948.00;6364740;28;20262;-74
2021/12/09 03:08:04;;;;;;;2.33;2.20;;;;;;;-2.00;93.80;101952.06;6366018;28;20222;-74
2021/12/09 03:11:13;;;;;;;4.73;2.30;;;;;;;-2.09;94.26;101951.88;6365652;28;20185;-74
2021/12/09 03:14:17;;;;;;;2.50;2.00;;;;;;;-1.80;92.77;101947.09;6364569;28;20185;-74
2021/12/09 03:17:23;;;;;;;4.17;2.00;;;;;;;-1.72;92.57;101956.28;6364525;28;20423;-74
2021/12/09 03:20:28;;;;;;;2.87;1.80;;;;;;;-1.81;91.17;101946.25;6365652;28;20194;-74
2021/12/09 03:23:34;;;;;;;1.90;1.90;;;;;;;-1.83;92.05;101964.25;6364282;28;20478;-74
2021/12/09 03:26:42;;;;;;;2.93;2.07;;;;;;;-1.61;91.00;101959.03;6364426;28;20185;-74
2021/12/09 03:29:46;;;;;;;1.77;1.70;;;;;;;-1.59;91.33;101975.81;6364780;28;20218;-74
2021/12/09 03:32:50;;;;;;;1.70;1.63;;;;;;;-1.41;90.87;101977.16;6365518;28;20186;-74
2021/12/09 03:35:58;;;;;;;2.73;2.00;;;;;;;-1.26;89.65;101992.09;6365790;28;20193;-75
2021/12/09 03:39:09;;;;;;;2.43;2.00;;;;;;;-1.38;89.36;101987.66;6363798;28;20259;-74
2021/12/09 03:42:17;;;;;;;4.00;1.90;;;;;;;-1.18;89.63;101985.34;6365325;28;20185;-74
2021/12/09 03:45:21;;;;;;;2.40;2.00;;;;;;;-0.98;88.93;101990.06;6363765;28;20198;-74
2021/12/09 03:48:29;;;;;;;2.37;1.80;;;;;;;-0.95;88.10;101979.13;6363644;28;20472;-74
2021/12/09 03:51:35;;;;;;;1.87;1.77;;;;;;;-0.85;87.81;101980.13;6364780;28;20271;-74
2021/12/09 03:54:42;;;;;;;2.23;1.97;;;;;;;-0.88;88.80;101980.38;6363819;28;20192;-75
2021/12/09 03:57:47;;;;;;;1.93;1.73;;;;;;;-0.63;88.65;101970.34;6363925;28;20185;-74
2021/12/09 04:00:51;;;;;;;2.43;2.03;;;;;;;-0.50;88.53;101958.66;6363408;28;20481;-75
2021/12/09 04:03:56;;;;;;;3.33;2.13;;;;;;;-0.56;88.80;101959.13;6364736;28;20187;-75
2021/12/09 04:07:00;;;;;;;2.97;2.00;;;;;;;-0.48;89.45;101967.44;6364647;28;20265;-75
2021/12/09 04:10:07;;;;;;;2.07;1.83;;;;;;;-0.41;88.96;101966.00;6364106;28;20276;-75
2021/12/09 04:13:14;;;;;;;4.00;2.10;;;;;;;-0.56;89.38;101965.34;6363174;28;20186;-75
2021/12/09 04:16:18;;;;;;;1.80;1.70;;;;;;;-0.49;88.78;101963.06;6364098;28;20183;-75
2021/12/09 04:19:23;;;;;;;9.33;2.23;;;;;;;-0.45;89.54;101968.06;6363401;28;20187;-74
2021/12/09 04:22:27;;;;;;;2.03;1.93;;;;;;;-0.45;89.36;101946.63;6363516;28;20224;-75
2021/12/09 04:25:35;;;;;;;2.90;2.20;;;;;;;-0.46;89.04;101966.34;6362693;28;20184;-74
2021/12/09 04:28:40;;;;;;;5.00;2.43;;;;;;;-0.29;88.48;101963.22;6363745;28;20216;-75
2021/12/09 04:31:47;;;;;;;2.00;1.97;;;;;;;-0.32;88.09;101955.41;6363627;28;20186;-75
2021/12/09 04:34:53;;;;;;;2.30;2.10;;;;;;;-0.23;88.82;101962.72;6362559;28;20183;-75
2021/12/09 04:37:58;;;;;;;2.23;2.13;;;;;;;-0.23;88.30;101941.25;6363672;28;20221;-75
2021/12/09 04:41:04;;;;;;;4.93;2.17;;;;;;;-0.24;88.75;101944.94;6362434;28;20208;-74
2021/12/09 04:44:08;;;;;;;2.37;2.10;;;;;;;-0.20;88.07;101951.75;6363368;28;20191;-75
2021/12/09 04:47:13;;;;;;;2.97;1.90;;;;;;;-0.41;89.20;101953.44;6363627;28;20182;-74
2021/12/09 04:50:18;;;;;;;4.00;2.27;;;;;;;-0.24;88.69;101944.94;6362918;28;20214;-74
2021/12/09 04:53:22;;;;;;;3.50;2.07;;;;;;;-0.21;88.65;101949.22;6363154;28;20242;-74
2021/12/09 04:56:29;;;;;;;7.50;2.37;;;;;;;-0.12;87.94;101943.97;6363197;28;20189;-75
2021/12/09 04:59:33;;;;;;;2.43;2.23;;;;;;;-0.18;87.69;101948.97;6363038;28;20256;-74
2021/12/09 05:02:55;;;;;;;2.20;2.10;;;;;;;-0.10;86.70;101939.31;6363349;28;20205;-74
2021/12/09 05:06:00;;;;;;;1.97;1.97;;;;;;;-0.25;87.52;101942.34;6361788;28;20220;-75
2021/12/09 05:09:10;;;;;;;2.73;2.37;;;;;;;-0.06;85.77;101953.34;6362968;28;20218;-74
2021/12/09 05:12:16;;;;;;;3.43;2.07;;;;;;;-0.01;85.25;101941.28;6363160;28;20194;-74
2021/12/09 05:15:20;;;;;;;8.07;2.50;;;;;;;-0.08;85.05;101948.09;6363097;28;20182;-74
2021/12/09 05:18:26;;;;;;;3.17;2.40;;;;;;;-0.05;84.58;101950.53;6362816;28;20184;-75
2021/12/09 05:21:36;;;;;;;2.87;2.20;;;;;;;-0.18;85.59;101957.84;6361623;28;20191;-75
2021/12/09 05:24:40;;;;;;;2.20;2.03;;;;;;;-0.14;84.90;101948.59;6362631;28;20248;-75
2021/12/09 05:27:48;;;;;;;2.50;2.30;;;;;;;-0.05;84.36;101955.91;6363047;28;20191;-75
2021/12/09 05:34:14;;;;;;;3.87;2.47;;;;;;;-0.02;84.25;101955.66;6362139;28;20250;-74
2021/12/09 05:37:21;;;;;;;4.07;2.50;;;;;;;-0.12;84.75;101960.06;6361528;28;20191;-74
2021/12/09 05:40:26;;;;;;;2.53;2.37;;;;;;;-0.28;85.40;101962.22;6362301;28;20194;-75
2021/12/09 05:43:32;;;;;;;2.40;2.20;;;;;;;-0.37;85.84;101965.66;6361627;28;20247;-75
2021/12/09 05:46:39;;;;;;;3.30;2.40;;;;;;;-0.40;86.29;101949.78;6361575;28;20475;-75
2021/12/09 05:49:47;;;;;;;2.40;2.03;;;;;;;-0.40;86.29;101960.50;6362015;28;20222;-75
2021/12/09 05:52:51;;;;;;;3.73;2.60;;;;;;;-0.33;86.36;101953.69;6361535;28;20244;-75
2021/12/09 05:55:55;;;;;;;2.07;2.07;;;;;;;-0.17;85.58;101943.47;6361489;28;20183;-75
2021/12/09 05:59:01;;;;;;;3.10;2.40;;;;;;;-0.25;85.95;101951.25;6362683;28;20251;-75
2021/12/09 06:02:05;;;;;;;5.60;2.30;;;;;;;-0.32;86.47;101950.03;6361194;28;20353;-74
2021/12/09 06:05:11;;;;;;;3.87;2.23;;;;;;;-0.24;85.96;101934.22;6361098;28;20184;-75
2021/12/09 06:08:19;;;;;;;6.73;2.20;;;;;;;-0.17;85.79;101950.66;6360968;28;20381;-74
2021/12/09 06:11:24;;;;;;;5.23;2.60;;;;;;;-0.21;85.46;101962.63;6361865;28;20207;-74
2021/12/09 06:14:29;;;;;;;5.50;2.67;;;;;;;-0.21;85.81;101955.44;6361791;28;20208;-74
2021/12/09 06:17:33;;;;;;;3.33;2.40;;;;;;;-0.09;85.67;101964.31;6364555;28;20373;-74
2021/12/09 06:20:38;;;;;;;4.23;2.40;;;;;;;-0.14;85.17;101966.53;6367155;28;20250;-75
2021/12/09 06:23:43;;;;;;;2.70;2.50;;;;;;;-0.07;85.06;101976.66;6366948;28;20185;-75
2021/12/09 06:26:48;;;;;;;6.93;2.67;;;;;;;-0.06;85.58;101970.31;6367038;28;20184;-75
2021/12/09 06:29:54;;;;;;;2.00;2.00;;;;;;;0.06;85.44;101979.22;6365617;28;20415;-75
2021/12/09 06:32:58;;;;;;;3.20;2.10;;;;;;;-0.02;85.32;101979.81;6366818;28;20190;-75
2021/12/09 06:36:02;;;;;;;3.90;2.50;;;;;;;0.11;85.22;101978.84;6365372;28;20411;-75
2021/12/09 06:39:07;;;;;;;5.47;2.37;;;;;;;0.13;84.95;101984.97;6366741;28;20225;-75
2021/12/09 06:42:13;;;;;;;5.30;2.23;;;;;;;0.16;84.93;101990.91;6366471;28;20306;-75
2021/12/09 06:45:21;;;;;;;2.63;2.33;;;;;;;0.09;85.28;101988.84;6366382;28;20190;-75
2021/12/09 06:48:26;;;;;;;4.80;2.40;;;;;;;-0.04;86.40;101995.19;6366155;28;20215;-75
2021/12/09 06:51:30;;;;;;;4.10;2.27;;;;;;;-0.05;85.94;101998.84;6365566;28;20311;-75
2021/12/09 06:54:34;;;;;;;2.17;2.17;;;;;;;0.02;85.79;102003.72;6365900;28;20183;-75
2021/12/09 06:57:38;;;;;;;2.63;2.40;;;;;;;-0.04;85.47;102005.91;6365006;28;20480;-75
2021/12/09 07:00:46;;;;;;;2.30;2.30;;;;;;;-0.03;86.22;102002.25;6364686;28;20187;-75
2021/12/09 07:03:51;;;;;;;2.33;1.93;;;;;;;-0.04;85.99;102013.97;6366202;28;20187;-75
2021/12/09 07:06:55;;;;;;;2.50;2.40;;;;;;;-0.04;86.13;102016.66;6365638;28;20268;-75
2021/12/09 07:10:00;;;;;;;5.97;2.43;;;;;;;0.00;86.35;102018.09;6365453;28;20184;-75
2021/12/09 07:13:05;;;;;;;3.10;2.07;;;;;;;-0.07;86.69;102011.53;6367087;28;20214;-74
2021/12/09 07:16:13;;;;;;;2.60;2.10;;;;;;;-0.07;86.50;102006.16;6364825;28;20475;-75
2021/12/09 07:19:17;;;;;;;2.67;2.47;;;;;;;-0.05;86.81;102020.28;6365629;28;20247;-75
2021/12/09 07:22:21;;;;;;;4.93;2.30;;;;;;;-0.02;86.13;102020.06;6364797;28;20223;-75
2021/12/09 07:25:28;;;;;;;2.40;2.07;;;;;;;0.00;85.35;102018.09;6363984;28;20527;-74
2021/12/09 07:28:33;;;;;;;3.20;2.37;;;;;;;0.05;85.14;102019.59;6363050;28;20479;-75
2021/12/09 07:31:39;;;;;;;3.10;1.90;;;;;;;0.07;83.78;102023.00;6365119;28;20212;-75
2021/12/09 07:34:43;;;;;;;2.00;2.00;;;;;;;-0.02;84.29;102014.69;6365341;28;20183;-75
2021/12/09 07:37:48;;;;;;;2.90;2.60;;;;;;;-0.05;84.16;102006.88;6364005;28;20245;-75
2021/12/09 07:40:53;;;;;;;4.40;2.50;;;;;;;-0.08;84.53;102004.44;6365052;28;20224;-75
2021/12/09 07:43:57;;;;;;;2.20;2.00;;;;;;;-0.15;84.36;102013.94;6364684;28;20214;-75
2021/12/09 07:47:03;;;;;;;3.33;2.20;;;;;;;-0.06;84.08;102001.66;6364591;28;20185;-74
2021/12/09 07:50:13;;;;;;;3.90;2.37;;;;;;;-0.15;84.52;102003.22;6363428;28;20480;-74
2021/12/09 07:53:18;;;;;;;1.87;1.87;;;;;;;-0.12;83.68;101994.06;6363557;28;20270;-74
2021/12/09 07:56:22;;;;;;;2.43;2.33;;;;;;;-0.18;83.65;101998.09;6364746;28;20256;-75
2021/12/09 07:59:26;;;;;;;2.30;2.20;;;;;;;-0.13;82.90;101998.56;6364173;28;20250;-75
2021/12/09 08:02:32;;;;;;;4.10;2.40;;;;;;;-0.16;82.17;102001.53;6364559;28;20252;-75
2021/12/09 08:05:39;;;;;;;1.83;1.73;;;;;;;-0.15;82.75;101980.91;6363890;28;20189;-75
2021/12/09 08:08:43;;;;;;;2.77;1.97;;;;;;;-0.14;82.97;101994.22;6364470;28;20253;-75
2021/12/09 08:11:48;;;;;;;3.03;2.27;;;;;;;-0.14;82.35;101994.22;6364092;28;20214;-75
2021/12/09 08:14:52;;;;;;;2.43;2.33;;;;;;;-0.04;81.37;101992.50;6363117;28;20467;-75
2021/12/09 08:18:02;;;;;;;5.60;2.37;;;;;;;-0.10;82.13;101984.06;6363949;28;20221;-75
2021/12/09 08:21:06;;;;;;;2.43;2.17;;;;;;;-0.04;81.66;101973.72;6363927;28;20250;-75
2021/12/09 08:24:11;;;;;;;2.30;2.20;;;;;;;-0.09;81.72;101986.66;6363821;28;20183;-74
2021/12/09 08:27:16;;;;;;;3.07;2.20;;;;;;;-0.10;82.13;101982.25;6363602;28;20191;-74
2021/12/09 08:30:25;;;;;;;1.73;1.73;;;;;;;-0.06;81.33;101973.00;6363803;28;20187;-74
2021/12/09 08:33:50;;;;;;;2.23;2.17;;;;;;;0.02;81.60;101966.16;6363988;28;20273;-74
2021/12/09 08:37:15;;;;;;;2.60;2.33;;;;;;;0.07;81.53;101969.34;6363270;28;20333;-75
2021/12/09 08:40:20;;;;;;;2.63;1.90;;;;;;;0.12;81.20;101961.78;6363263;28;20198;-74
2021/12/09 08:43:24;;;;;;;2.13;2.03;;;;;;;0.11;80.67;101965.41;6362288;28;20195;-74
2021/12/09 08:46:30;;;;;;;2.03;1.90;;;;;;;0.14;79.84;101957.97;6362186;28;20183;-74
2021/12/09 08:49:35;;;;;;;1.60;1.60;;;;;;;0.13;78.87;101958.13;6363435;28;20184;-75
2021/12/09 08:52:40;;;;;;;4.97;2.17;;;;;;;0.17;78.63;101970.31;6362450;28;20247;-74
2021/12/09 08:55:45;;;;;;;1.80;1.80;;;;;;;0.26;77.61;101974.91;6363371;28;20186;-75
2021/12/09 08:58:49;;;;;;;1.90;1.80;;;;;;;0.19;78.05;101965.66;6363058;28;20188;-75
2021/12/09 09:01:55;;;;;;;1.70;1.70;;;;;;;0.22;77.07;101965.41;6361931;28;20495;-75
2021/12/09 09:05:01;;;;;;;1.57;1.57;;;;;;;0.21;76.68;101961.00;6362852;28;20261;-75
2021/12/09 09:08:07;;;;;;;3.90;1.93;;;;;;;0.22;77.74;101962.75;6361705;28;20184;-74
2021/12/09 09:11:11;;;;;;;2.10;2.00;;;;;;;0.25;76.51;101963.34;6362853;28;20186;-74
2021/12/09 09:14:16;;;;;;;1.40;1.40;;;;;;;0.30;74.88;101968.34;6362839;28;20211;-75
2021/12/09 09:17:20;;;;;;;2.70;2.47;;;;;;;0.40;75.37;101966.63;6362753;28;20194;-75
2021/12/09 09:20:28;;;;;;;2.33;2.17;;;;;;;0.47;75.19;101957.09;6361533;28;20192;-75
2021/12/09 09:23:32;;;;;;;3.47;1.93;;;;;;;0.40;75.46;101955.88;6362931;28;20188;-75
2021/12/09 09:26:38;;;;;;;1.97;1.87;;;;;;;0.43;74.92;101939.53;6361946;28;20189;-75
2021/12/09 09:29:43;;;;;;;4.77;1.63;;;;;;;0.54;75.63;101939.47;6362865;28;20182;-75
2021/12/09 09:32:49;;;;;;;2.63;1.80;;;;;;;0.55;75.02;101930.47;6362515;28;20292;-75
2021/12/09 09:35:55;;;;;;;2.50;1.70;;;;;;;0.62;75.30;101931.66;6361426;28;20321;-75
2021/12/09 09:39:16;;;;;;;1.53;1.53;;;;;;;0.67;74.70;101926.75;6361755;28;20258;-76
2021/12/09 09:42:45;;;;;;;2.23;1.93;;;;;;;0.64;75.46;101927.03;6362437;28;20188;-75
2021/12/09 09:45:49;;;;;;;2.40;2.20;;;;;;;0.72;75.23;101924.53;6362152;28;20184;-75
2021/12/09 09:48:55;;;;;;;2.27;2.07;;;;;;;0.71;76.39;101924.69;6361380;28;20560;-74
2021/12/09 09:52:01;;;;;;;2.23;2.10;;;;;;;0.75;76.52;101935.03;6364656;28;20291;-75
2021/12/09 09:55:09;;;;;;;2.00;1.90;;;;;;;0.72;75.91;101929.91;6366471;28;20502;-75
2021/12/09 09:58:13;;;;;;;1.73;1.73;;;;;;;0.78;75.69;101924.03;6367401;28;20185;-75
2021/12/09 10:01:19;;;;;;;1.80;1.70;;;;;;;0.74;76.26;101927.97;6367260;28;20239;-75
2021/12/09 10:04:33;;;;;;;2.07;1.97;;;;;;;0.88;75.31;101919.59;6366331;28;20188;-75
2021/12/09 10:07:39;;;;;;;1.93;1.87;;;;;;;0.89;75.23;101924.00;6366881;28;20192;-75
2021/12/09 10:10:45;;;;;;;2.30;1.77;;;;;;;0.77;75.38;101924.19;6365998;28;20426;-75
2021/12/09 10:13:49;;;;;;;2.00;1.90;;;;;;;0.89;75.84;101932.06;6366985;28;20213;-75
2021/12/09 10:17:07;;;;;;;2.30;2.20;;;;;;;0.89;76.20;101921.31;6367470;28;20187;-75
2021/12/09 10:20:12;;;;;;;3.33;2.03;;;;;;;0.88;75.99;101924.13;6367693;28;20193;-75
2021/12/09 10:23:28;;;;;;;1.93;1.93;;;;;;;0.76;76.59;101920.63;6366434;28;20266;-75
2021/12/09 10:26:36;;;;;;;3.00;1.83;;;;;;;0.83;76.43;101905.69;6366796;28;20187;-76
2021/12/09 10:29:44;;;;;;;2.30;2.10;;;;;;;0.78;76.67;101933.94;6366964;28;20326;-75
2021/12/09 10:32:50;;;;;;;1.93;1.93;;;;;;;0.81;77.30;101902.28;6366845;28;20221;-75
2021/12/09 10:35:54;;;;;;;2.97;2.10;;;;;;;0.81;77.19;101907.66;6366528;28;20186;-75
2021/12/09 10:39:15;;;;;;;2.03;1.80;;;;;;;0.69;77.37;101897.09;6366835;28;20183;-77
2021/12/09 10:42:24;;;;;;;4.83;2.00;;;;;;;0.69;77.00;101892.59;6366613;28;20191;-75
2021/12/09 10:45:31;;;;;;;2.87;2.17;;;;;;;0.73;77.15;101904.78;6366583;28;20184;-76
2021/12/09 10:48:44;;;;;;;2.30;2.10;;;;;;;0.68;77.66;101896.25;6366489;28;20216;-75
2021/12/09 10:51:57;;;;;;;2.20;2.10;;;;;;;0.64;78.00;101889.44;6366070;28;20251;-74
2021/12/09 10:55:09;;;;;;;6.43;2.70;;;;;;;0.59;78.00;101899.72;6365800;28;20208;-75
2021/12/09 10:58:16;;;;;;;2.53;2.40;;;;;;;0.63;77.74;101893.09;6365947;28;20192;-75
2021/12/09 11:01:23;;;;;;;2.77;2.33;;;;;;;0.62;77.60;101886.00;6364936;28;20465;-75
2021/12/09 11:04:28;;;;;;;1.90;1.80;;;;;;;0.58;77.62;101873.81;6366059;28;20199;-76
2021/12/09 11:07:33;;;;;;;2.33;2.13;;;;;;;0.57;77.72;101888.22;6364530;28;20414;-74
2021/12/09 11:10:46;;;;;;;2.60;2.30;;;;;;;0.59;77.80;101878.22;6366197;28;20207;-75
2021/12/09 11:13:53;;;;;;;4.13;2.20;;;;;;;0.65;77.76;101880.38;6365588;28;20309;-75
2021/12/09 11:17:03;;;;;;;1.97;1.87;;;;;;;0.56;77.34;101870.41;6364809;28;20490;-75
2021/12/09 11:20:08;;;;;;;3.70;2.20;;;;;;;0.68;76.12;101865.84;6364518;28;20382;-75
2021/12/09 11:23:36;;;;;;;4.73;2.23;;;;;;;0.75;76.14;101870.56;6364859;28;20196;-75
2021/12/09 11:26:55;;;;;;;4.03;1.90;;;;;;;0.79;75.95;101865.78;6364500;28;20357;-75
2021/12/09 11:30:10;;;;;;;2.97;2.00;;;;;;;0.77;75.88;101863.22;6364576;28;20193;-74
2021/12/09 11:33:30;;;;;;;2.00;2.00;;;;;;;0.85;75.38;101868.81;6364236;28;20403;-75
2021/12/09 11:36:43;;;;;;;3.20;1.70;;;;;;;0.93;75.14;101858.28;6365063;28;20223;-75
2021/12/09 11:39:48;;;;;;;5.30;2.00;;;;;;;0.91;75.49;101849.50;6363846;28;20208;-75
2021/12/09 11:42:58;;;;;;;3.20;2.00;;;;;;;0.84;76.04;101855.53;6364698;28;20251;-75
2021/12/09 11:46:03;;;;;;;2.20;2.10;;;;;;;0.88;75.94;101855.13;6364909;28;20184;-75
2021/12/09 11:49:10;;;;;;;1.80;1.80;;;;;;;0.84;75.78;101863.56;6363801;28;20206;-74
2021/12/09 11:52:16;;;;;;;2.03;1.93;;;;;;;0.82;75.25;101844.06;6364666;28;20344;-74
2021/12/09 11:55:26;;;;;;;1.83;1.73;;;;;;;0.83;75.60;101854.66;6364378;28;20209;-73
2021/12/09 11:58:39;;;;;;;2.10;1.90;;;;;;;0.87;75.49;101848.06;6363835;28;20430;-74
2021/12/09 12:12:44;;;;;;;2.03;1.90;;;;;;;0.69;78.04;101821.88;6363198;28;20475;-74
2021/12/09 12:15:56;;;;;;;2.73;2.17;;;;;;;0.72;77.54;101822.47;6362308;28;20400;-73
2021/12/09 12:19:07;;;;;;;2.37;2.27;;;;;;;0.70;78.31;101821.75;6363490;28;20192;-74
2021/12/09 12:22:47;;;;;;;1.80;1.70;;;;;;;0.71;77.64;101820.78;6363780;28;20305;-74
2021/12/09 12:26:25;;;;;;;2.13;2.03;;;;;;;0.55;77.08;101836.47;6364254;28;20221;-74
2021/12/09 12:29:59;;;;;;;8.10;2.20;;;;;;;0.54;76.38;101824.00;6364270;28;20184;-74
2021/12/09 12:33:25;;;;;;;3.93;2.30;;;;;;;0.54;76.98;101814.13;6362687;28;20207;-73
2021/12/09 12:37:08;;;;;;;2.80;2.50;;;;;;;0.66;77.49;101817.63;6362942;28;20543;-75
2021/12/09 12:40:16;;;;;;;2.20;2.20;;;;;;;0.58;77.54;101801.31;6362603;28;20525;-74
2021/12/09 12:43:27;;;;;;;3.17;2.37;;;;;;;0.60;77.71;101797.50;6363777;28;20224;-75
2021/12/09 12:46:52;;;;;;;2.03;2.03;;;;;;;0.57;77.74;101799.59;6363488;28;20250;-74
2021/12/09 12:50:10;;;;;;;2.60;2.40;;;;;;;0.50;77.72;101811.84;6363051;28;20184;-74
2021/12/09 12:53:32;;;;;;;5.97;2.47;;;;;;;0.51;77.83;101813.56;6362487;28;20235;-74
2021/12/09 12:56:42;;;;;;;2.13;1.90;;;;;;;0.47;78.14;101822.84;6363362;28;20190;-75
2021/12/09 13:00:05;;;;;;;2.63;2.43;;;;;;;0.33;78.18;101825.81;6363136;28;20184;-75
2021/12/09 13:03:30;;;;;;;2.43;2.30;;;;;;;0.27;78.81;101804.84;6363208;28;20185;-75
2021/12/09 13:06:50;;;;;;;7.87;2.40;;;;;;;0.22;79.21;101818.66;6363078;28;20189;-76
2021/12/09 13:10:29;;;;;;;2.67;2.50;;;;;;;0.23;79.23;101792.69;6362885;28;20183;-75
2021/12/09 13:13:43;;;;;;;4.13;2.93;;;;;;;0.24;79.59;101799.72;6363256;28;20250;-75
2021/12/09 13:17:02;;;;;;;2.53;2.43;;;;;;;0.20;79.97;101792.94;6362649;28;20184;-75
2021/12/09 13:20:15;;;;;;;2.97;2.70;;;;;;;0.12;80.33;101803.44;6362746;28;20190;-76
2021/12/09 13:23:25;;;;;;;2.67;2.43;;;;;;;0.05;80.67;101783.47;6361817;28;20479;-75
2021/12/09 13:26:35;;;;;;;2.63;2.43;;;;;;;0.11;80.07;101780.25;6362061;28;20211;-75
2021/12/09 13:29:50;;;;;;;2.10;2.10;;;;;;;0.05;79.56;101775.41;6362931;28;20246;-76
2021/12/09 13:33:22;;;;;;;2.43;2.33;;;;;;;0.06;78.53;101769.06;6361944;28;20184;-76
2021/12/09 13:40:20;;;;;;;3.30;1.90;;;;;;;0.07;76.76;101746.63;6362398;28;20191;-75
2021/12/09 13:47:00;;;;;;;2.17;2.03;;;;;;;0.08;77.67;101724.19;6361117;28;20203;-74
2021/12/09 13:57:00;;;;;;;2.33;1.77;;;;;;;0.00;80.51;101732.88;6360882;28;20516;-74
2021/12/09 14:00:10;;;;;;;2.57;2.30;;;;;;;-0.04;80.99;101726.91;6362044;28;20184;-75
2021/12/09 14:03:17;;;;;;;3.03;1.83;;;;;;;-0.03;81.59;101739.31;6361670;28;20184;-74
2021/12/09 14:06:21;;;;;;;2.43;1.93;;;;;;;-0.04;81.17;101712.63;6362464;28;20259;-74
2021/12/09 14:09:28;;;;;;;2.13;2.03;;;;;;;-0.10;82.20;101727.41;6362525;28;20191;-74
2021/12/09 14:12:41;;;;;;;2.97;2.37;;;;;;;0.04;80.76;101722.72;6361103;28;20185;-74
2021/12/09 14:16:00;;;;;;;3.77;2.10;;;;;;;0.06;80.09;101720.75;6362355;28;20210;-74
2021/12/09 14:22:26;;;;;;;2.60;2.50;;;;;;;0.17;79.77;101696.56;6361641;28;20184;-74
2021/12/09 14:25:35;;;;;;;5.27;1.67;;;;;;;0.30;79.80;101686.50;6361371;28;20187;-74
2021/12/09 14:28:41;;;;;;;2.33;2.07;;;;;;;0.47;79.34;101688.59;6362207;28;20219;-74
2021/12/09 14:31:47;;;;;;;2.00;2.00;;;;;;;0.47;79.96;101677.84;6362049;28;20184;-74
2021/12/09 14:34:54;;;;;;;4.00;1.97;;;;;;;0.52;79.30;101654.13;6361691;28;20302;-74
2021/12/09 14:38:16;;;;;;;2.47;2.37;;;;;;;0.61;79.14;101642.59;6363706;28;20228;-74
2021/12/09 14:41:27;;;;;;;5.00;1.80;;;;;;;0.46;80.32;101633.19;6365344;28;20477;-74
2021/12/09 14:44:33;;;;;;;1.87;1.87;;;;;;;0.56;80.07;101623.38;6366007;28;20229;-74
2021/12/09 14:47:37;;;;;;;4.40;2.07;;;;;;;0.59;80.47;101623.09;6366237;28;20220;-75
2021/12/09 14:50:44;;;;;;;1.90;1.90;;;;;;;0.55;80.61;101611.75;6365063;28;20184;-75
2021/12/09 14:54:06;;;;;;;3.53;2.10;;;;;;;0.58;79.86;101627.63;6365240;28;20231;-75
2021/12/09 14:57:11;;;;;;;2.20;1.97;;;;;;;0.57;79.97;101625.03;6365762;28;20212;-73
2021/12/09 15:00:29;;;;;;;2.20;2.10;;;;;;;0.53;80.36;101623.63;6366285;28;20185;-75
2021/12/09 15:03:39;;;;;;;2.33;2.07;;;;;;;0.48;81.25;101625.84;6366180;28;20185;-75
2021/12/09 15:07:03;;;;;;;4.03;2.03;;;;;;;0.36;81.60;101640.34;6364625;28;20552;-75
2021/12/09 15:10:10;;;;;;;2.27;2.17;;;;;;;0.34;82.28;101628.88;6365742;28;20206;-73
2021/12/09 15:13:15;;;;;;;2.13;2.13;;;;;;;0.36;83.72;101610.81;6365724;28;20195;-74
2021/12/09 15:16:25;;;;;;;2.30;2.10;;;;;;;0.31;83.13;101618.41;6365329;28;20206;-75
2021/12/09 15:19:30;;;;;;;2.43;2.20;;;;;;;0.27;82.97;101612.44;6364385;28;20380;-75
2021/12/09 15:22:44;;;;;;;2.00;1.90;;;;;;;0.36;82.92;101600.09;6364220;28;20380;-75